Data for 10/21/2016

Time Sea-Level Adjusted Pressure Absolute Pressure Temperature Relative Humidity Dew Point   
(mb) (inHg) (mb) (inHg) (C) (F) (%) (C) (F)
00:05 1020 30.12 849 25.07 12 53.5 34 -3.2 26.3
00:10 1020 30.12 849 25.07 11.9 53.3 34 -3.3 26
00:15 1020 30.12 849 25.07 11.8 53.2 36 -2.9 26.8
00:20 1020 30.12 849 25.07 11.7 53.1 36 -3 26.7
00:25 1020 30.12 849 25.07 11.7 53 36 -2.9 26.7
00:30 1020 30.12 849 25.07 11.5 52.8 36 -2.8 27
00:35 1020 30.12 849 25.07 11.4 52.5 37 -2.7 27.2
00:40 1020 30.12 849 25.07 11.3 52.4 38 -2.6 27.3
00:45 1020 30.12 849 25.07 11.4 52.5 37 -2.8 27
00:50 1020 30.12 849 25.07 11.5 52.6 37 -2.7 27.2
00:55 1020 30.12 849 25.07 11.5 52.7 36 -3 26.5
01:00 1020 30.12 849 25.07 11.6 52.9 36 -2.8 27
01:05 1020 30.12 849 25.07 11.5 52.7 36 -2.9 26.9
01:10 1020 30.12 849 25.07 11.5 52.7 37 -2.7 27.1
01:15 1020 30.12 849 25.07 11.3 52.3 38 -2.4 27.7
01:20 1020 30.12 849 25.07 11 51.8 39 -2.4 27.7
01:25 1020 30.12 849 25.07 10.8 51.4 39 -2.6 27.3
01:30 1020 30.12 849 25.07 10.8 51.4 39 -2.7 27.2
01:35 1020 30.12 849 25.07 10.6 51.2 39 -2.5 27.4
01:40 1020 30.12 849 25.07 10.7 51.3 39 -2.5 27.6
01:45 1020 30.12 849 25.07 10.8 51.5 39 -2.4 27.7
01:50 1020 30.12 849 25.07 10.8 51.4 40 -2.2 28
01:55 1020 30.12 849 25.07 10.8 51.4 40 -2.3 27.9
02:00 1020 30.12 849 25.07 11 51.8 38 -2.7 27.1
02:05 1020 30.12 850 25.1 11.2 52.2 38 -2.4 27.8
02:10 1020 30.12 850 25.1 11.1 51.9 39 -2.3 27.9
02:15 1020 30.12 850 25.1 11.1 52 38 -2.7 27.2
02:20 1020 30.12 850 25.1 11.5 52.6 36 -2.9 26.8
02:25 1020 30.12 850 25.1 11.7 53 36 -3 26.7
02:30 1021 30.15 850 25.1 11.7 53 37 -2.6 27.3
02:35 1021 30.15 850 25.1 11.5 52.7 37 -2.5 27.5
02:40 1021 30.15 850 25.1 11.4 52.6 37 -2.8 26.9
02:45 1021 30.15 850 25.1 11.6 53 38 -2.2 28.1
02:50 1021 30.15 850 25.1 11.4 52.6 40 -1.6 29.1
02:55 1021 30.15 850 25.1 11 51.9 41 -1.6 29.2
03:00 1021 30.15 850 25.1 10.8 51.4 42 -1.5 29.3
03:05 1021 30.15 850 25.1 10.6 51.2 43 -1.4 29.4
03:10 1021 30.15 850 25.1 10.5 50.8 43 -1.5 29.4
03:15 1021 30.15 850 25.1 10.4 50.7 44 -1.4 29.5
03:20 1021 30.15 850 25.1 10.4 50.6 43 -1.5 29.3
03:25 1021 30.15 850 25.1 10.4 50.7 44 -1.3 29.7
03:30 1021 30.15 850 25.1 10.3 50.6 43 -1.6 29.1
03:35 1021 30.15 850 25.1 10.4 50.6 43 -1.6 29.1
03:40 1021 30.15 850 25.1 10.4 50.7 43 -1.7 29
03:45 1021 30.15 850 25.1 10.4 50.7 43 -1.6 29.1
03:50 1021 30.15 850 25.1 10.4 50.7 42 -1.8 28.8
03:55 1021 30.15 850 25.1 10.3 50.6 43 -1.6 29.2
04:00 1021 30.15 850 25.1 10.2 50.4 44 -1.4 29.5
04:05 1021 30.15 850 25.1 10.1 50.2 45 -1.3 29.7
04:10 1021 30.15 850 25.1 10.1 50.1 45 -1.4 29.5
04:15 1021 30.15 850 25.1 10.2 50.3 44 -1.4 29.4
04:20 1021 30.15 850 25.1 10.4 50.6 44 -1.4 29.5
04:25 1021 30.15 850 25.1 10.5 50.9 43 -1.5 29.3
04:30 1021 30.15 850 25.1 10.6 51 43 -1.4 29.5
04:35 1021 30.15 850 25.1 10.6 51 45 -0.9 30.4
04:40 1021 30.15 850 25.1 10.3 50.6 45 -1 30.2
04:45 1021 30.15 850 25.1 10.2 50.4 45 -1.2 29.8
04:50 1021 30.15 850 25.1 10.2 50.3 44 -1.4 29.5
04:55 1021 30.15 850 25.1 10.1 50.1 44 -1.4 29.4
05:00 1021 30.15 850 25.1 10.1 50.2 44 -1.6 29.1
05:05 1021 30.15 850 25.1 10.2 50.3 45 -1.3 29.6
05:10 1021 30.15 850 25.1 10.1 50.3 43 -1.8 28.8
05:15 1021 30.15 850 25.1 10.2 50.4 44 -1.6 29.1
05:20 1021 30.15 850 25.1 10.3 50.5 43 -1.8 28.7
05:25 1021 30.15 850 25.1 10.3 50.6 42 -1.9 28.6
05:30 1021 30.15 850 25.1 10.4 50.7 43 -1.6 29.2
05:35 1021 30.15 850 25.1 10.2 50.4 44 -1.5 29.2
05:40 1021 30.15 850 25.1 10 50.1 44 -1.7 28.9
05:45 1021 30.15 850 25.1 10 49.9 43 -1.9 28.6
05:50 1021 30.15 850 25.1 9.9 49.8 44 -1.8 28.8
05:55 1021 30.15 850 25.1 9.8 49.6 46 -1.3 29.6
06:00 1021 30.15 850 25.1 9.6 49.3 46 -1.6 29.2
06:05 1021 30.15 850 25.1 9.5 49.1 45 -1.7 29
06:10 1021 30.15 850 25.1 9.5 49.2 45 -1.7 28.9
06:15 1021 30.15 850 25.1 9.5 49.2 45 -1.7 28.9
06:20 1021 30.15 850 25.1 9.6 49.3 45 -1.8 28.8
06:25 1021 30.15 850 25.1 9.6 49.3 45 -1.7 29
06:30 1020 30.12 850 25.1 9.6 49.2 45 -1.7 28.9
06:35 1020 30.12 850 25.1 9.6 49.3 45 -1.8 28.7
06:40 1021 30.15 850 25.1 9.6 49.3 45 -1.6 29.1
06:45 1021 30.15 850 25.1 9.5 49.1 45 -1.7 28.9
06:50 1021 30.15 850 25.1 9.5 49.2 45 -1.7 29
06:55 1021 30.15 850 25.1 9.6 49.2 45 -1.8 28.7
07:00 1021 30.15 850 25.1 9.5 49.1 46 -1.6 29.1
07:05 1021 30.15 850 25.1 9.5 49 45 -2 28.4
07:10 1021 30.15 850 25.1 9.5 49.1 45 -1.8 28.8
07:15 1021 30.15 850 25.1 9.4 48.9 45 -1.8 28.8
07:20 1021 30.15 850 25.1 9.3 48.8 46 -1.6 29.1
07:25 1021 30.15 850 25.1 9.3 48.7 47 -1.3 29.6
07:30 1021 30.15 850 25.1 9.1 48.5 47 -1.5 29.3
07:35 1021 30.15 850 25.1 9.1 48.4 47 -1.6 29.2
07:40 1021 30.15 850 25.1 9.1 48.3 46 -1.8 28.8
07:45 1021 30.15 850 25.1 9.2 48.6 45 -2.1 28.2
07:50 1021 30.15 850 25.1 9.4 49 45 -1.9 28.5
07:55 1021 30.15 850 25.1 9.4 48.9 45 -1.8 28.8
08:00 1021 30.15 850 25.1 9.4 48.9 47 -1.2 29.8
08:05 1021 30.15 850 25.1 9.1 48.3 50 -0.7 30.8
08:10 1021 30.15 850 25.1 8 46.4 56 -0.1 31.7
08:15 1021 30.15 850 25.1 7.4 45.3 56 -0.7 30.8
08:20 1021 30.15 850 25.1 7.4 45.2 57 -0.5 31
08:25 1021 30.15 850 25.1 7.4 45.3 57 -0.5 31.2
08:30 1021 30.15 850 25.1 7.6 45.7 57 -0.3 31.4
08:35 1021 30.15 850 25.1 7.6 45.7 58 -0 32
08:40 1021 30.15 850 25.1 7.3 45.2 60 0.1 32.2
08:45 1021 30.15 850 25.1 6.9 44.5 59 -0.4 31.3
08:50 1021 30.15 850 25.1 7 44.7 57 -0.9 30.4
08:55 1021 30.15 850 25.1 7.4 45.3 56 -0.7 30.7
09:00 1021 30.15 850 25.1 7.4 45.3 57 -0.6 30.9
09:05 1021 30.15 850 25.1 7.6 45.6 57 -0.3 31.5
09:10 1021 30.15 850 25.1 7.9 46.1 55 -0.7 30.8
09:15 1021 30.15 850 25.1 8.1 46.6 55 -0.3 31.4
09:20 1021 30.15 850 25.1 8.2 46.7 56 -0 31.9
09:25 1021 30.15 850 25.1 8.3 46.9 54 -0.4 31.2
09:30 1021 30.15 850 25.1 8.5 47.4 53 -0.4 31.3
09:35 1021 30.15 850 25.1 8.9 48 52 -0.3 31.5
09:40 1021 30.15 850 25.1 9.1 48.3 53 -0 32
09:45 1021 30.15 850 25.1 9 48.1 54 0.3 32.5
09:50 1021 30.15 850 25.1 9.1 48.4 54 0.2 32.4
09:55 1021 30.15 850 25.1 9.3 48.7 54 0.4 32.7
10:00 1021 30.15 850 25.1 9.6 49.2 52 0.2 32.4
10:05 1021 30.15 850 25.1 9.9 49.7 51 0.3 32.5
10:10 1021 30.15 850 25.1 10.2 50.3 49 -0.1 31.9
10:15 1021 30.15 850 25.1 10.5 51 47 -0.1 31.8
10:20 1021 30.15 850 25.1 10.8 51.4 47 -0.2 31.7
10:25 1021 30.15 850 25.1 10.8 51.4 47 -0.1 31.9
10:30 1021 30.15 850 25.1 10.8 51.4 46 -0.2 31.6
10:35 1021 30.15 850 25.1 11 51.8 46 -0.1 31.7
10:40 1021 30.15 850 25.1 11.5 52.7 43 -0.6 30.9
10:45 1021 30.15 850 25.1 11.8 53.3 42 -0.7 30.7
10:50 1021 30.15 850 25.1 12.1 53.9 41 -0.8 30.6
10:55 1021 30.15 850 25.1 11.7 53 44 -0.2 31.6
11:00 1021 30.15 850 25.1 11.9 53.5 42 -0.7 30.8
11:05 1021 30.15 850 25.1 12.3 54.1 43 -0 32
11:10 1021 30.15 850 25.1 12.2 53.9 41 -0.5 31.1
11:15 1021 30.15 850 25.1 13 55.3 38 -1 30.2
11:20 1021 30.15 850 25.1 12.8 55 41 -0.2 31.6
11:25 1021 30.15 850 25.1 13 55.4 39 -0.6 30.8
11:30 1021 30.15 850 25.1 13.3 55.9 39 -0.3 31.4
11:35 1020 30.12 850 25.1 13 55.5 36 -1.4 29.4
11:40 1020 30.12 850 25.1 13 55.5 38 -0.8 30.6
11:45 1020 30.12 850 25.1 13.7 56.7 34 -1.7 29
11:50 1020 30.12 850 25.1 14.2 57.6 35 -0.9 30.3
11:55 1020 30.12 849 25.07 14.1 57.3 34 -1.3 29.7
12:00 1020 30.12 849 25.07 13.7 56.7 35 -1.3 29.7
12:05 1020 30.12 849 25.07 13.9 56.9 35 -1.3 29.7
12:10 1020 30.12 849 25.07 14 57.2 35 -1.3 29.7
12:15 1020 30.12 849 25.07 14 57.3 34 -1.7 29
12:20 1020 30.12 849 25.07 14.4 57.9 33 -1.5 29.2
12:25 1020 30.12 849 25.07 14.3 57.7 35 -1.1 30.1
12:30 1020 30.12 849 25.07 14 57.2 34 -1.6 29.1
12:35 1020 30.12 849 25.07 14.2 57.6 34 -1.5 29.3
12:40 1020 30.12 849 25.07 14.9 58.7 33 -1.2 29.8
12:45 1020 30.12 849 25.07 15.3 59.6 32 -1.3 29.7
12:50 1020 30.12 849 25.07 15.7 60.3 31 -1.3 29.7
12:55 1020 30.12 849 25.07 15.5 59.8 32 -1.2 29.9
13:00 1019 30.09 849 25.07 14.9 58.8 33 -1.1 29.9
13:05 1019 30.09 849 25.07 14.7 58.4 33 -1.3 29.6
13:10 1019 30.09 849 25.07 14.9 58.7 33 -1.3 29.6
13:15 1019 30.09 848 25.04 14.5 58.1 33 -1.4 29.5
13:20 1019 30.09 848 25.04 15.2 59.3 32 -1.3 29.6
13:25 1019 30.09 848 25.04 15.9 60.6 31 -1.3 29.6
13:30 1019 30.09 848 25.04 16.3 61.3 31 -1 30.2
13:35 1019 30.09 848 25.04 16.1 61.1 31 -0.8 30.5
13:40 1019 30.09 848 25.04 16 60.7 30 -1.3 29.7
13:45 1019 30.09 848 25.04 15.5 59.8 32 -1.3 29.7
13:50 1019 30.09 848 25.04 15.4 59.7 32 -1.2 29.9
13:55 1019 30.09 848 25.04 15.7 60.2 32 -1.1 30.1
14:00 1019 30.09 848 25.04 15.1 59.2 33 -0.8 30.6
14:05 1018 30.06 848 25.04 15 59 34 -0.8 30.5
14:10 1018 30.06 848 25.04 15.1 59.1 32 -1.5 29.3
14:15 1018 30.06 847 25.01 15.6 60.1 33 -0.6 30.9
14:20 1018 30.06 847 25.01 14.9 58.9 33 -1.3 29.7
14:25 1018 30.06 847 25.01 15.3 59.6 32 -1.3 29.6
14:30 1018 30.06 847 25.01 16 60.7 31 -0.9 30.4
14:35 1018 30.06 847 25.01 15.1 59.1 33 -1.1 30.1
14:40 1018 30.06 847 25.01 14.8 58.7 33 -1.2 29.9
14:45 1018 30.06 847 25.01 14.8 58.7 33 -1 30.2
14:50 1018 30.06 847 25.01 14.7 58.5 33 -1.1 30
14:55 1018 30.06 847 25.01 14.9 58.8 33 -1 30.1
15:00 1018 30.06 847 25.01 15.4 59.6 32 -1.1 30
15:05 1017 30.03 847 25.01 15.7 60.2 31 -1.3 29.7
15:10 1017 30.03 847 25.01 15.6 60.1 31 -1.3 29.6
15:15 1017 30.03 847 25.01 15.9 60.7 30 -1.5 29.3
15:20 1017 30.03 847 25.01 16.3 61.3 29 -1.7 29
15:25 1017 30.03 847 25.01 16.8 62.2 28 -1.7 29
15:30 1017 30.03 847 25.01 16.6 61.8 29 -1.6 29.1
15:35 1017 30.03 846 24.98 16.8 62.2 29 -1.4 29.5
15:40 1017 30.03 846 24.98 16.4 61.5 30 -1.3 29.7
15:45 1017 30.03 846 24.98 16.1 61 30 -1.5 29.3
15:50 1017 30.03 846 24.98 16.2 61.1 30 -1.4 29.5
15:55 1017 30.03 846 24.98 16.3 61.3 29 -1.6 29.2
16:00 1017 30.03 846 24.98 16.2 61.2 30 -1.3 29.6
16:05 1017 30.03 846 24.98 16.3 61.4 29 -1.6 29
16:10 1017 30.03 846 24.98 16.5 61.8 29 -1.5 29.3
16:15 1017 30.03 846 24.98 16.6 61.8 29 -1.4 29.4
16:20 1017 30.03 846 24.98 16.5 61.6 31 -0.6 30.8
16:25 1017 30.03 846 24.98 16.5 61.6 29 -1.6 29.1
16:30 1017 30.03 846 24.98 16.4 61.5 29 -1.4 29.5
16:35 1017 30.03 846 24.98 16.4 61.5 29 -1.6 29.1
16:40 1017 30.03 846 24.98 16.1 61 30 -1.4 29.5
16:45 1017 30.03 846 24.98 15.9 60.6 30 -1.6 29.1
16:50 1017 30.03 846 24.98 15.9 60.6 30 -1.5 29.4
16:55 1017 30.03 846 24.98 15.8 60.5 31 -1.3 29.7
17:00 1017 30.03 846 24.98 15.8 60.4 32 -1 30.2
17:05 1017 30.03 846 24.98 15.8 60.4 31 -1 30.2
17:10 1017 30.03 846 24.98 16.4 61.4 30 -1 30.2
17:15 1016 30 846 24.98 16.5 61.7 30 -0.9 30.4
17:20 1016 30 846 24.98 16.3 61.4 31 -0.9 30.4
17:25 1016 30 846 24.98 16.1 61 31 -0.9 30.4
17:30 1016 30 846 24.98 15.8 60.5 35 0.6 33
17:35 1017 30.03 846 24.98 15.8 60.4 34 -0.1 31.8
17:40 1016 30 846 24.98 15.6 60.1 34 0.1 32.1
17:45 1016 30 846 24.98 15.7 60.2 35 0.3 32.6
17:50 1016 30 846 24.98 15.7 60.3 36 0.8 33.5
17:55 1016 30 846 24.98 15.4 59.7 37 0.9 33.7
18:00 1016 30 845 24.95 14.9 58.8 39 1.3 34.3
18:05 1016 30 845 24.95 14.5 58.1 39 0.8 33.5
18:10 1016 30 845 24.95 14.3 57.7 45 2.6 36.7
18:15 1016 30 845 24.95 13.7 56.6 48 3 37.4
18:20 1016 30 845 24.95 13 55.4 52 3.4 38.2
18:25 1016 30 845 24.95 12.7 54.8 53 3.3 38
18:30 1016 30 845 24.95 12.4 54.4 52 3 37.3
18:35 1016 30 845 24.95 12.4 54.2 50 2.3 36.1
18:40 1016 30 845 24.95 12.4 54.4 52 2.8 37.1
18:45 1016 30 845 24.95 12.1 53.8 53 2.8 37
18:50 1016 30 845 24.95 12 53.5 48 1.3 34.4
18:55 1016 30 845 24.95 12.5 54.5 47 1.5 34.7
19:00 1016 30 845 24.95 12.4 54.3 47 1.4 34.5
19:05 1016 30 845 24.95 12.4 54.3 48 1.6 34.9
19:10 1016 30 845 24.95 12.3 54.1 48 1.5 34.7
19:15 1016 30 845 24.95 12.2 54 46 0.9 33.7
19:20 1016 30 845 24.95 12.3 54.1 47 1.5 34.6
19:25 1016 30 845 24.95 12.1 53.9 50 2.1 35.8
19:30 1016 30 845 24.95 11.9 53.4 48 1.4 34.5
19:35 1016 30 845 24.95 11.8 53.2 46 0.7 33.3
19:40 1016 30 845 24.95 11.7 53.1 48 1.2 34.2
19:45 1016 30 845 24.95 11.6 53 48 1 33.8
19:50 1016 30 845 24.95 11.5 52.8 47 0.7 33.3
19:55 1016 30 845 24.95 11.4 52.6 46 0.3 32.6
20:00 1016 30 845 24.95 11.5 52.8 45 0.2 32.3
20:05 1016 30 845 24.95 11.5 52.6 45 0.1 32.2
20:10 1016 30 845 24.95 11.3 52.4 45 -0.2 31.7
20:15 1016 30 845 24.95 11.2 52.1 45 -0.2 31.6
20:20 1016 30 845 24.95 11.2 52.1 44 -0.6 30.9
20:25 1016 30 845 24.95 11.3 52.3 43 -0.9 30.4
20:30 1016 30 845 24.95 11.4 52.5 41 -1.2 29.8
20:35 1016 30 845 24.95 11.6 52.8 40 -1.4 29.4
20:40 1016 30 845 24.95 11.6 52.8 39 -1.7 29
20:45 1016 30 845 24.95 11.7 53 40 -1.5 29.4
20:50 1016 30 845 24.95 11.6 52.8 39 -1.7 28.9
20:55 1016 30 845 24.95 11.7 53 40 -1.5 29.2
21:00 1016 30 845 24.95 11.6 52.8 40 -1.5 29.3
21:05 1016 30 845 24.95 11.5 52.7 40 -1.5 29.3
21:10 1016 30 845 24.95 11.4 52.4 41 -1.4 29.5
21:15 1015 29.97 845 24.95 11.4 52.5 40 -1.7 29
21:20 1015 29.97 845 24.95 11.4 52.5 40 -1.7 29
21:25 1015 29.97 845 24.95 11.4 52.5 41 -1.4 29.4
21:30 1015 29.97 845 24.95 11.3 52.3 40 -1.7 29
21:35 1015 29.97 844 24.92 11.2 52.2 40 -1.7 28.9
21:40 1015 29.97 845 24.95 11.1 52 40 -1.8 28.7
21:45 1015 29.97 845 24.95 11.2 52.2 40 -1.9 28.6
21:50 1015 29.97 845 24.95 11.2 52.1 40 -1.8 28.7
21:55 1015 29.97 844 24.92 11.2 52.1 40 -1.9 28.6
22:00 1015 29.97 844 24.92 11.2 52.1 40 -1.9 28.6
22:05 1015 29.97 844 24.92 11 51.7 40 -2 28.4
22:10 1015 29.97 844 24.92 11 51.7 40 -2.2 28.1
22:15 1015 29.97 844 24.92 10.9 51.6 40 -2.1 28.2
22:20 1015 29.97 844 24.92 10.8 51.5 40 -2.1 28.2
22:25 1015 29.97 844 24.92 10.7 51.3 40 -2.2 28.1
22:30 1015 29.97 844 24.92 10.7 51.2 40 -2.4 27.6
22:35 1015 29.97 844 24.92 10.8 51.5 39 -2.6 27.4
22:40 1015 29.97 844 24.92 10.9 51.6 39 -2.6 27.4
22:45 1015 29.97 844 24.92 10.9 51.6 38 -2.8 27
22:50 1015 29.97 844 24.92 10.9 51.7 38 -3 26.7
22:55 1015 29.97 844 24.92 10.9 51.6 38 -2.9 26.7
23:00 1015 29.97 844 24.92 10.8 51.5 38 -2.8 27
23:05 1014 29.94 844 24.92 10.8 51.4 38 -2.9 26.7
23:10 1014 29.94 844 24.92 10.7 51.2 39 -2.7 27.1
23:15 1014 29.94 844 24.92 10.6 51 38 -3 26.5
23:20 1014 29.94 844 24.92 10.6 51.1 38 -3.2 26.2
23:25 1014 29.94 844 24.92 10.7 51.2 37 -3.5 25.7
23:30 1015 29.97 844 24.92 10.8 51.4 37 -3.4 25.9
23:35 1015 29.97 844 24.92 10.7 51.3 37 -3.5 25.7
23:40 1015 29.97 844 24.92 10.7 51.2 37 -3.4 25.9
23:45 1015 29.97 844 24.92 10.7 51.2 35 -4.1 24.6
23:50 1014 29.94 844 24.92 10.9 51.7 33 -4.6 23.7
23:55 1014 29.94 844 24.92 11.2 52.2 33 -4.3 24.3
24:00 1014 29.94 844 24.92 11.1 51.9 33 -4.4 24.1